sensor_id;sensor_type;location;lat;lon;timestamp;pressure;altitude;pressure_sealevel;temperature;humidity
47738;BME280;33502;47.182;27.506;2023-05-31T00:01:13;100234.19;;;11.56;100.00
47738;BME280;33502;47.182;27.506;2023-05-31T00:03:39;100235.53;;;11.46;100.00
47738;BME280;33502;47.182;27.506;2023-05-31T00:06:09;100236.69;;;11.40;100.00
47738;BME280;33502;47.182;27.506;2023-05-31T00:08:35;100239.63;;;11.34;100.00
47738;BME280;33502;47.182;27.506;2023-05-31T00:11:01;100247.72;;;11.31;100.00
47738;BME280;33502;47.182;27.506;2023-05-31T00:13:27;100246.44;;;11.21;100.00
47738;BME280;33502;47.182;27.506;2023-05-31T00:15:52;100245.78;;;11.15;100.00
47738;BME280;33502;47.182;27.506;2023-05-31T00:18:18;100255.31;;;11.20;100.00
47738;BME280;33502;47.182;27.506;2023-05-31T00:20:44;100252.66;;;11.20;100.00
47738;BME280;33502;47.182;27.506;2023-05-31T00:23:09;100254.53;;;11.17;100.00
47738;BME280;33502;47.182;27.506;2023-05-31T00:25:35;100253.91;;;11.12;100.00
47738;BME280;33502;47.182;27.506;2023-05-31T00:28:01;100258.47;;;11.09;100.00
47738;BME280;33502;47.182;27.506;2023-05-31T00:30:26;100256.03;;;11.04;100.00
47738;BME280;33502;47.182;27.506;2023-05-31T00:32:52;100255.09;;;11.05;100.00
47738;BME280;33502;47.182;27.506;2023-05-31T00:35:17;100252.41;;;11.07;100.00
47738;BME280;33502;47.182;27.506;2023-05-31T00:37:43;100250.09;;;10.99;100.00
47738;BME280;33502;47.182;27.506;2023-05-31T00:40:09;100247.63;;;10.94;100.00
47738;BME280;33502;47.182;27.506;2023-05-31T00:42:35;100248.72;;;10.90;100.00
47738;BME280;33502;47.182;27.506;2023-05-31T00:45:00;100255.44;;;10.78;100.00
47738;BME280;33502;47.182;27.506;2023-05-31T00:47:26;100249.47;;;10.73;100.00
47738;BME280;33502;47.182;27.506;2023-05-31T00:49:52;100252.38;;;10.67;100.00
47738;BME280;33502;47.182;27.506;2023-05-31T00:52:18;100241.06;;;10.64;100.00
47738;BME280;33502;47.182;27.506;2023-05-31T00:54:44;100244.56;;;10.64;100.00
47738;BME280;33502;47.182;27.506;2023-05-31T00:57:10;100248.94;;;10.65;100.00
47738;BME280;33502;47.182;27.506;2023-05-31T00:59:36;100250.59;;;10.68;100.00
47738;BME280;33502;47.182;27.506;2023-05-31T01:02:02;100257.56;;;10.70;100.00
47738;BME280;33502;47.182;27.506;2023-05-31T01:04:32;100251.31;;;10.71;100.00
47738;BME280;33502;47.182;27.506;2023-05-31T01:06:59;100254.91;;;10.70;100.00
47738;BME280;33502;47.182;27.506;2023-05-31T01:09:25;100259.09;;;10.76;100.00
47738;BME280;33502;47.182;27.506;2023-05-31T01:16:53;100265.78;;;11.23;100.00
47738;BME280;33502;47.182;27.506;2023-05-31T01:22:16;100270.44;;;11.36;100.00
47738;BME280;33502;47.182;27.506;2023-05-31T01:24:56;100272.00;;;11.41;100.00
47738;BME280;33502;47.182;27.506;2023-05-31T01:27:24;100267.53;;;11.43;100.00
47738;BME280;33502;47.182;27.506;2023-05-31T01:29:51;100272.72;;;11.44;100.00
47738;BME280;33502;47.182;27.506;2023-05-31T01:32:18;100272.09;;;11.39;100.00
47738;BME280;33502;47.182;27.506;2023-05-31T01:34:45;100272.38;;;11.33;100.00
47738;BME280;33502;47.182;27.506;2023-05-31T01:37:11;100268.38;;;11.24;100.00
47738;BME280;33502;47.182;27.506;2023-05-31T01:39:37;100274.22;;;11.12;100.00
47738;BME280;33502;47.182;27.506;2023-05-31T01:42:03;100276.53;;;11.01;100.00
47738;BME280;33502;47.182;27.506;2023-05-31T01:44:30;100275.25;;;10.89;100.00
47738;BME280;33502;47.182;27.506;2023-05-31T01:46:56;100280.84;;;10.83;100.00
47738;BME280;33502;47.182;27.506;2023-05-31T01:49:23;100278.19;;;10.83;100.00
47738;BME280;33502;47.182;27.506;2023-05-31T01:51:49;100280.91;;;10.81;100.00
47738;BME280;33502;47.182;27.506;2023-05-31T01:54:15;100280.91;;;10.81;100.00
47738;BME280;33502;47.182;27.506;2023-05-31T01:56:41;100286.66;;;10.91;100.00
47738;BME280;33502;47.182;27.506;2023-05-31T01:59:07;100286.91;;;11.05;100.00
47738;BME280;33502;47.182;27.506;2023-05-31T02:01:33;100281.25;;;11.13;100.00
47738;BME280;33502;47.182;27.506;2023-05-31T02:03:59;100289.63;;;11.23;100.00
47738;BME280;33502;47.182;27.506;2023-05-31T02:06:25;100294.38;;;11.35;100.00
47738;BME280;33502;47.182;27.506;2023-05-31T02:08:53;100291.38;;;11.43;100.00
47738;BME280;33502;47.182;27.506;2023-05-31T02:11:19;100289.00;;;11.36;100.00
47738;BME280;33502;47.182;27.506;2023-05-31T02:13:44;100289.09;;;11.35;100.00
47738;BME280;33502;47.182;27.506;2023-05-31T02:16:10;100292.00;;;11.29;100.00
47738;BME280;33502;47.182;27.506;2023-05-31T02:18:37;100291.09;;;11.30;100.00
47738;BME280;33502;47.182;27.506;2023-05-31T02:21:05;100288.44;;;11.30;100.00
47738;BME280;33502;47.182;27.506;2023-05-31T02:23:31;100293.38;;;11.38;100.00
47738;BME280;33502;47.182;27.506;2023-05-31T02:25:57;100289.88;;;11.37;100.00
47738;BME280;33502;47.182;27.506;2023-05-31T02:28:23;100296.75;;;11.41;100.00
47738;BME280;33502;47.182;27.506;2023-05-31T02:30:53;100292.53;;;11.37;100.00
47738;BME280;33502;47.182;27.506;2023-05-31T02:33:19;100308.56;;;11.34;100.00
47738;BME280;33502;47.182;27.506;2023-05-31T02:35:45;100294.38;;;11.35;100.00
47738;BME280;33502;47.182;27.506;2023-05-31T02:38:11;100309.06;;;11.42;100.00
47738;BME280;33502;47.182;27.506;2023-05-31T02:40:36;100313.88;;;11.53;100.00
47738;BME280;33502;47.182;27.506;2023-05-31T02:43:03;100317.72;;;11.65;100.00
47738;BME280;33502;47.182;27.506;2023-05-31T02:45:28;100325.25;;;11.74;100.00
47738;BME280;33502;47.182;27.506;2023-05-31T02:47:54;100324.25;;;11.76;100.00
47738;BME280;33502;47.182;27.506;2023-05-31T02:50:20;100322.31;;;11.80;100.00
47738;BME280;33502;47.182;27.506;2023-05-31T02:52:53;100316.88;;;11.83;100.00
47738;BME280;33502;47.182;27.506;2023-05-31T02:55:32;100322.00;;;11.86;100.00
47738;BME280;33502;47.182;27.506;2023-05-31T02:58:21;100321.16;;;11.86;100.00
47738;BME280;33502;47.182;27.506;2023-05-31T03:01:25;100330.97;;;11.84;100.00
47738;BME280;33502;47.182;27.506;2023-05-31T03:04:20;100327.41;;;11.85;100.00
47738;BME280;33502;47.182;27.506;2023-05-31T03:06:46;100329.13;;;11.86;100.00
47738;BME280;33502;47.182;27.506;2023-05-31T03:09:14;100330.75;;;11.88;100.00
47738;BME280;33502;47.182;27.506;2023-05-31T03:11:45;100332.22;;;11.95;100.00
47738;BME280;33502;47.182;27.506;2023-05-31T03:14:11;100335.22;;;12.07;100.00
47738;BME280;33502;47.182;27.506;2023-05-31T03:16:48;100334.84;;;12.14;100.00
47738;BME280;33502;47.182;27.506;2023-05-31T03:19:14;100337.19;;;12.21;100.00
47738;BME280;33502;47.182;27.506;2023-05-31T03:21:42;100334.94;;;12.30;100.00
47738;BME280;33502;47.182;27.506;2023-05-31T03:24:07;100338.09;;;12.39;100.00
47738;BME280;33502;47.182;27.506;2023-05-31T03:26:33;100337.84;;;12.43;100.00
47738;BME280;33502;47.182;27.506;2023-05-31T03:28:58;100336.84;;;12.46;100.00
47738;BME280;33502;47.182;27.506;2023-05-31T03:31:24;100330.44;;;12.50;100.00
47738;BME280;33502;47.182;27.506;2023-05-31T03:33:55;100333.63;;;12.57;100.00
47738;BME280;33502;47.182;27.506;2023-05-31T03:36:21;100345.75;;;12.62;100.00
47738;BME280;33502;47.182;27.506;2023-05-31T03:38:46;100338.41;;;12.67;100.00
47738;BME280;33502;47.182;27.506;2023-05-31T03:41:14;100353.25;;;12.71;100.00
47738;BME280;33502;47.182;27.506;2023-05-31T03:43:40;100351.38;;;12.73;100.00
47738;BME280;33502;47.182;27.506;2023-05-31T03:46:05;100355.56;;;12.78;100.00
47738;BME280;33502;47.182;27.506;2023-05-31T03:48:31;100356.13;;;12.84;100.00
47738;BME280;33502;47.182;27.506;2023-05-31T03:50:56;100356.72;;;12.89;100.00
47738;BME280;33502;47.182;27.506;2023-05-31T03:53:22;100345.81;;;12.96;100.00
47738;BME280;33502;47.182;27.506;2023-05-31T03:55:49;100353.28;;;13.05;100.00
47738;BME280;33502;47.182;27.506;2023-05-31T03:58:16;100356.34;;;13.15;100.00
47738;BME280;33502;47.182;27.506;2023-05-31T04:00:42;100359.25;;;13.26;100.00
47738;BME280;33502;47.182;27.506;2023-05-31T04:03:08;100359.75;;;13.34;100.00
47738;BME280;33502;47.182;27.506;2023-05-31T04:05:40;100367.91;;;13.47;100.00
47738;BME280;33502;47.182;27.506;2023-05-31T04:08:07;100368.13;;;13.60;100.00
47738;BME280;33502;47.182;27.506;2023-05-31T04:10:33;100377.16;;;13.73;100.00
47738;BME280;33502;47.182;27.506;2023-05-31T04:12:59;100373.91;;;13.84;100.00
47738;BME280;33502;47.182;27.506;2023-05-31T04:15:25;100378.53;;;13.96;100.00
47738;BME280;33502;47.182;27.506;2023-05-31T04:17:53;100376.19;;;14.06;100.00
47738;BME280;33502;47.182;27.506;2023-05-31T04:20:19;100374.84;;;14.15;100.00
47738;BME280;33502;47.182;27.506;2023-05-31T04:22:47;100385.75;;;14.26;100.00
47738;BME280;33502;47.182;27.506;2023-05-31T04:25:13;100394.06;;;14.36;100.00
47738;BME280;33502;47.182;27.506;2023-05-31T04:27:41;100386.22;;;14.48;100.00
47738;BME280;33502;47.182;27.506;2023-05-31T04:30:07;100384.16;;;14.70;100.00
47738;BME280;33502;47.182;27.506;2023-05-31T04:32:33;100378.28;;;14.93;100.00
47738;BME280;33502;47.182;27.506;2023-05-31T04:35:03;100382.31;;;15.15;100.00
47738;BME280;33502;47.182;27.506;2023-05-31T04:37:32;100385.38;;;15.37;100.00
47738;BME280;33502;47.182;27.506;2023-05-31T04:40:00;100392.94;;;15.59;100.00
47738;BME280;33502;47.182;27.506;2023-05-31T04:42:27;100389.78;;;15.96;100.00
47738;BME280;33502;47.182;27.506;2023-05-31T04:44:54;100395.97;;;16.23;100.00
47738;BME280;33502;47.182;27.506;2023-05-31T04:47:25;100392.13;;;16.42;100.00
47738;BME280;33502;47.182;27.506;2023-05-31T04:49:54;100390.91;;;16.60;100.00
47738;BME280;33502;47.182;27.506;2023-05-31T04:52:24;100395.59;;;16.97;100.00
47738;BME280;33502;47.182;27.506;2023-05-31T04:54:52;100391.66;;;17.28;100.00
47738;BME280;33502;47.182;27.506;2023-05-31T04:57:18;100403.31;;;17.66;100.00
47738;BME280;33502;47.182;27.506;2023-05-31T04:59:44;100395.88;;;18.32;100.00
47738;BME280;33502;47.182;27.506;2023-05-31T05:02:10;100403.34;;;19.46;93.91
47738;BME280;33502;47.182;27.506;2023-05-31T05:04:36;100395.63;;;20.64;82.24
47738;BME280;33502;47.182;27.506;2023-05-31T05:07:02;100404.66;;;21.16;77.23
47738;BME280;33502;47.182;27.506;2023-05-31T05:09:28;100404.16;;;21.84;73.43
47738;BME280;33502;47.182;27.506;2023-05-31T05:11:54;100396.94;;;22.35;69.34
47738;BME280;33502;47.182;27.506;2023-05-31T05:14:21;100399.66;;;22.64;67.58
47738;BME280;33502;47.182;27.506;2023-05-31T05:16:47;100401.81;;;22.80;66.20
47738;BME280;33502;47.182;27.506;2023-05-31T05:19:13;100408.19;;;22.79;65.70
47738;BME280;33502;47.182;27.506;2023-05-31T05:21:41;100415.16;;;23.11;64.13
47738;BME280;33502;47.182;27.506;2023-05-31T05:24:09;100414.13;;;23.21;64.85
47738;BME280;33502;47.182;27.506;2023-05-31T05:26:35;100405.50;;;23.55;61.59
47738;BME280;33502;47.182;27.506;2023-05-31T05:29:00;100411.75;;;23.65;61.37
47738;BME280;33502;47.182;27.506;2023-05-31T05:31:26;100411.38;;;24.16;58.66
47738;BME280;33502;47.182;27.506;2023-05-31T05:33:57;100419.56;;;24.06;58.30
47738;BME280;33502;47.182;27.506;2023-05-31T05:36:22;100425.66;;;23.71;58.46
47738;BME280;33502;47.182;27.506;2023-05-31T05:38:52;100419.59;;;24.24;59.70
47738;BME280;33502;47.182;27.506;2023-05-31T05:41:17;100419.69;;;25.48;55.71
47738;BME280;33502;47.182;27.506;2023-05-31T05:43:43;100416.09;;;25.21;54.75
47738;BME280;33502;47.182;27.506;2023-05-31T05:46:12;100424.66;;;25.27;54.06
47738;BME280;33502;47.182;27.506;2023-05-31T05:48:38;100426.38;;;25.62;52.74
47738;BME280;33502;47.182;27.506;2023-05-31T05:51:03;100429.88;;;26.15;51.45
47738;BME280;33502;47.182;27.506;2023-05-31T05:53:29;100432.88;;;26.54;50.66
47738;BME280;33502;47.182;27.506;2023-05-31T05:55:55;100433.28;;;26.76;49.42
47738;BME280;33502;47.182;27.506;2023-05-31T05:58:30;100428.28;;;25.96;49.92
47738;BME280;33502;47.182;27.506;2023-05-31T06:01:16;100428.41;;;25.60;51.37
47738;BME280;33502;47.182;27.506;2023-05-31T06:03:49;100426.94;;;25.39;50.58
47738;BME280;33502;47.182;27.506;2023-05-31T06:06:15;100430.38;;;25.50;51.65
47738;BME280;33502;47.182;27.506;2023-05-31T06:08:45;100429.19;;;25.78;50.57
47738;BME280;33502;47.182;27.506;2023-05-31T06:11:11;100431.53;;;26.08;50.07
47738;BME280;33502;47.182;27.506;2023-05-31T06:13:37;100437.06;;;26.41;50.00
47738;BME280;33502;47.182;27.506;2023-05-31T06:16:05;100437.78;;;26.43;49.11
47738;BME280;33502;47.182;27.506;2023-05-31T06:18:33;100438.25;;;26.38;48.70
47738;BME280;33502;47.182;27.506;2023-05-31T06:21:00;100440.94;;;27.30;47.25
47738;BME280;33502;47.182;27.506;2023-05-31T06:23:26;100432.41;;;27.58;46.80
47738;BME280;33502;47.182;27.506;2023-05-31T06:25:52;100435.16;;;27.41;45.78
47738;BME280;33502;47.182;27.506;2023-05-31T06:28:17;100435.44;;;27.71;46.67
47738;BME280;33502;47.182;27.506;2023-05-31T06:30:44;100437.16;;;27.47;44.81
47738;BME280;33502;47.182;27.506;2023-05-31T06:33:10;100441.56;;;27.57;44.83
47738;BME280;33502;47.182;27.506;2023-05-31T06:35:36;100432.88;;;27.69;45.42
47738;BME280;33502;47.182;27.506;2023-05-31T06:38:02;100438.53;;;27.19;46.00
47738;BME280;33502;47.182;27.506;2023-05-31T06:40:30;100430.72;;;26.99;46.30
47738;BME280;33502;47.182;27.506;2023-05-31T06:42:56;100431.72;;;27.47;44.82
47738;BME280;33502;47.182;27.506;2023-05-31T06:45:50;100438.88;;;27.32;44.69
47738;BME280;33502;47.182;27.506;2023-05-31T06:48:16;100437.84;;;27.49;45.21
47738;BME280;33502;47.182;27.506;2023-05-31T06:51:00;100438.94;;;28.27;44.08
47738;BME280;33502;47.182;27.506;2023-05-31T06:53:44;100436.88;;;28.38;42.75
47738;BME280;33502;47.182;27.506;2023-05-31T06:56:20;100437.59;;;28.63;43.07
47738;BME280;33502;47.182;27.506;2023-05-31T06:58:46;100431.94;;;29.11;43.99
47738;BME280;33502;47.182;27.506;2023-05-31T07:01:12;100438.13;;;29.57;41.75
47738;BME280;33502;47.182;27.506;2023-05-31T07:03:37;100436.00;;;29.82;41.13
47738;BME280;33502;47.182;27.506;2023-05-31T07:06:03;100435.84;;;29.31;41.55
47738;BME280;33502;47.182;27.506;2023-05-31T07:08:30;100440.47;;;29.45;41.91
47738;BME280;33502;47.182;27.506;2023-05-31T07:11:24;100439.16;;;29.71;41.09
47738;BME280;33502;47.182;27.506;2023-05-31T07:13:51;100444.66;;;29.56;41.04
47738;BME280;33502;47.182;27.506;2023-05-31T07:16:17;100444.25;;;29.59;40.50
47738;BME280;33502;47.182;27.506;2023-05-31T07:18:44;100443.13;;;29.54;43.00
47738;BME280;33502;47.182;27.506;2023-05-31T07:21:11;100447.84;;;29.60;40.32
47738;BME280;33502;47.182;27.506;2023-05-31T07:23:36;100439.41;;;29.17;41.20
47738;BME280;33502;47.182;27.506;2023-05-31T07:26:02;100439.41;;;29.17;40.20
47738;BME280;33502;47.182;27.506;2023-05-31T07:28:28;100440.06;;;29.19;40.81
47738;BME280;33502;47.182;27.506;2023-05-31T07:30:53;100445.22;;;29.66;39.91
47738;BME280;33502;47.182;27.506;2023-05-31T07:33:19;100443.47;;;29.74;40.11
47738;BME280;33502;47.182;27.506;2023-05-31T07:35:45;100444.78;;;29.93;39.73
47738;BME280;33502;47.182;27.506;2023-05-31T07:38:10;100438.16;;;30.32;39.21
47738;BME280;33502;47.182;27.506;2023-05-31T07:40:36;100440.16;;;31.02;40.00
47738;BME280;33502;47.182;27.506;2023-05-31T07:43:01;100429.59;;;30.78;37.83
47738;BME280;33502;47.182;27.506;2023-05-31T07:45:27;100437.94;;;30.70;38.81
47738;BME280;33502;47.182;27.506;2023-05-31T07:47:53;100433.63;;;30.60;38.60
47738;BME280;33502;47.182;27.506;2023-05-31T07:50:18;100438.22;;;30.96;37.79
47738;BME280;33502;47.182;27.506;2023-05-31T07:52:44;100432.09;;;31.79;37.09
47738;BME280;33502;47.182;27.506;2023-05-31T07:55:15;100433.59;;;32.16;37.01
47738;BME280;33502;47.182;27.506;2023-05-31T07:57:41;100439.78;;;31.97;37.62
47738;BME280;33502;47.182;27.506;2023-05-31T08:00:07;100428.69;;;32.05;37.43
47738;BME280;33502;47.182;27.506;2023-05-31T08:02:37;100426.53;;;31.37;38.34
47738;BME280;33502;47.182;27.506;2023-05-31T08:05:02;100423.59;;;30.89;37.16
47738;BME280;33502;47.182;27.506;2023-05-31T08:07:29;100433.56;;;30.02;39.00
47738;BME280;33502;47.182;27.506;2023-05-31T08:09:55;100430.00;;;30.02;38.17
47738;BME280;33502;47.182;27.506;2023-05-31T08:12:21;100426.88;;;29.90;38.31
47738;BME280;33502;47.182;27.506;2023-05-31T08:14:46;100433.91;;;30.14;39.67
47738;BME280;33502;47.182;27.506;2023-05-31T08:17:12;100432.22;;;30.86;40.33
47738;BME280;33502;47.182;27.506;2023-05-31T08:19:38;100429.09;;;31.67;38.54
47738;BME280;33502;47.182;27.506;2023-05-31T08:22:04;100437.88;;;32.46;36.74
47738;BME280;33502;47.182;27.506;2023-05-31T08:24:30;100429.72;;;32.04;36.22
47738;BME280;33502;47.182;27.506;2023-05-31T08:26:55;100422.00;;;31.79;36.80
47738;BME280;33502;47.182;27.506;2023-05-31T08:29:24;100426.16;;;31.40;36.32
47738;BME280;33502;47.182;27.506;2023-05-31T08:31:50;100423.06;;;30.36;38.28
47738;BME280;33502;47.182;27.506;2023-05-31T08:34:15;100413.66;;;30.60;38.21
47738;BME280;33502;47.182;27.506;2023-05-31T08:36:41;100430.38;;;30.72;37.88
47738;BME280;33502;47.182;27.506;2023-05-31T08:39:07;100433.00;;;31.01;36.29
47738;BME280;33502;47.182;27.506;2023-05-31T08:41:38;100422.69;;;31.53;35.12
47738;BME280;33502;47.182;27.506;2023-05-31T08:44:07;100417.09;;;32.78;35.51
47738;BME280;33502;47.182;27.506;2023-05-31T08:46:34;100417.75;;;32.73;33.39
47738;BME280;33502;47.182;27.506;2023-05-31T08:49:08;100414.38;;;33.05;32.84
47738;BME280;33502;47.182;27.506;2023-05-31T08:51:34;100410.56;;;32.66;33.85
47738;BME280;33502;47.182;27.506;2023-05-31T08:54:02;100417.59;;;32.20;34.33
47738;BME280;33502;47.182;27.506;2023-05-31T08:56:28;100409.75;;;32.10;33.40
47738;BME280;33502;47.182;27.506;2023-05-31T08:58:54;100411.25;;;32.19;34.82
47738;BME280;33502;47.182;27.506;2023-05-31T09:01:20;100408.47;;;32.81;34.67
47738;BME280;33502;47.182;27.506;2023-05-31T09:03:45;100405.09;;;33.06;33.47
47738;BME280;33502;47.182;27.506;2023-05-31T09:06:11;100402.31;;;33.52;33.38
47738;BME280;33502;47.182;27.506;2023-05-31T09:08:37;100402.31;;;33.46;32.47
47738;BME280;33502;47.182;27.506;2023-05-31T09:11:04;100408.22;;;32.69;35.05
47738;BME280;33502;47.182;27.506;2023-05-31T09:13:31;100395.94;;;32.45;33.23
47738;BME280;33502;47.182;27.506;2023-05-31T09:15:57;100402.56;;;32.64;34.20
47738;BME280;33502;47.182;27.506;2023-05-31T09:18:23;100386.34;;;32.08;33.26
47738;BME280;33502;47.182;27.506;2023-05-31T09:20:51;100397.34;;;32.14;34.57
47738;BME280;33502;47.182;27.506;2023-05-31T09:23:21;100389.00;;;31.88;32.68
47738;BME280;33502;47.182;27.506;2023-05-31T09:25:47;100379.00;;;31.73;33.11
47738;BME280;33502;47.182;27.506;2023-05-31T09:28:14;100373.03;;;31.56;34.31
47738;BME280;33502;47.182;27.506;2023-05-31T09:30:39;100380.84;;;31.31;34.51
47738;BME280;33502;47.182;27.506;2023-05-31T09:33:06;100382.03;;;31.22;34.20
47738;BME280;33502;47.182;27.506;2023-05-31T09:35:32;100375.63;;;31.71;36.19
47738;BME280;33502;47.182;27.506;2023-05-31T09:38:00;100371.88;;;31.79;36.18
47738;BME280;33502;47.182;27.506;2023-05-31T09:40:29;100375.91;;;32.31;34.96
47738;BME280;33502;47.182;27.506;2023-05-31T09:42:55;100366.22;;;31.87;34.50
47738;BME280;33502;47.182;27.506;2023-05-31T09:45:21;100371.81;;;31.66;34.43
47738;BME280;33502;47.182;27.506;2023-05-31T09:47:48;100372.63;;;31.59;32.63
47738;BME280;33502;47.182;27.506;2023-05-31T09:52:45;100374.75;;;31.64;32.26
47738;BME280;33502;47.182;27.506;2023-05-31T09:55:12;100365.97;;;30.84;31.63
47738;BME280;33502;47.182;27.506;2023-05-31T09:57:39;100366.84;;;31.13;33.48
47738;BME280;33502;47.182;27.506;2023-05-31T10:00:09;100361.69;;;31.59;33.34
47738;BME280;33502;47.182;27.506;2023-05-31T10:02:40;100359.50;;;30.70;32.71
47738;BME280;33502;47.182;27.506;2023-05-31T10:05:07;100361.78;;;30.67;35.08
47738;BME280;33502;47.182;27.506;2023-05-31T10:07:34;100353.09;;;31.34;34.75
47738;BME280;33502;47.182;27.506;2023-05-31T10:10:00;100354.19;;;31.75;32.77
47738;BME280;33502;47.182;27.506;2023-05-31T10:12:26;100357.97;;;30.03;32.40
47738;BME280;33502;47.182;27.506;2023-05-31T10:14:54;100353.84;;;29.33;32.93
47738;BME280;33502;47.182;27.506;2023-05-31T10:17:20;100352.41;;;30.76;34.18
47738;BME280;33502;47.182;27.506;2023-05-31T10:19:50;100356.97;;;30.69;33.90
47738;BME280;33502;47.182;27.506;2023-05-31T10:22:18;100351.84;;;29.71;33.24
47738;BME280;33502;47.182;27.506;2023-05-31T10:27:17;100350.66;;;30.68;32.18
47738;BME280;33502;47.182;27.506;2023-05-31T10:29:50;100338.91;;;31.52;33.27
47738;BME280;33502;47.182;27.506;2023-05-31T10:32:20;100348.75;;;31.82;33.27
47738;BME280;33502;47.182;27.506;2023-05-31T10:34:48;100337.69;;;32.10;32.01
47738;BME280;33502;47.182;27.506;2023-05-31T10:37:14;100337.38;;;31.85;33.56
47738;BME280;33502;47.182;27.506;2023-05-31T10:39:44;100343.84;;;32.38;32.66
47738;BME280;33502;47.182;27.506;2023-05-31T10:44:50;100336.16;;;30.68;33.51
47738;BME280;33502;47.182;27.506;2023-05-31T10:47:20;100332.31;;;31.12;32.29
47738;BME280;33502;47.182;27.506;2023-05-31T10:49:49;100336.69;;;31.41;31.29
47738;BME280;33502;47.182;27.506;2023-05-31T10:52:17;100331.97;;;31.56;33.56
47738;BME280;33502;47.182;27.506;2023-05-31T10:54:43;100337.00;;;31.18;31.86
47738;BME280;33502;47.182;27.506;2023-05-31T10:57:08;100331.66;;;31.38;32.32
47738;BME280;33502;47.182;27.506;2023-05-31T10:59:39;100332.38;;;30.90;31.28
47738;BME280;33502;47.182;27.506;2023-05-31T11:02:07;100331.69;;;31.45;31.68
47738;BME280;33502;47.182;27.506;2023-05-31T11:04:33;100329.47;;;32.10;30.90
47738;BME280;33502;47.182;27.506;2023-05-31T11:09:55;100319.88;;;32.67;30.46
47738;BME280;33502;47.182;27.506;2023-05-31T11:12:34;100319.88;;;32.74;30.22
47738;BME280;33502;47.182;27.506;2023-05-31T11:15:01;100308.91;;;33.14;30.78
47738;BME280;33502;47.182;27.506;2023-05-31T11:17:38;100314.56;;;32.32;30.16
47738;BME280;33502;47.182;27.506;2023-05-31T11:20:03;100314.31;;;32.14;29.43
47738;BME280;33502;47.182;27.506;2023-05-31T11:22:30;100305.97;;;32.69;28.37
47738;BME280;33502;47.182;27.506;2023-05-31T11:24:56;100313.94;;;32.37;27.91
47738;BME280;33502;47.182;27.506;2023-05-31T11:27:33;100312.63;;;31.58;29.64
47738;BME280;33502;47.182;27.506;2023-05-31T11:29:59;100309.28;;;32.24;29.54
47738;BME280;33502;47.182;27.506;2023-05-31T11:35:04;100309.16;;;31.91;29.42
47738;BME280;33502;47.182;27.506;2023-05-31T11:37:30;100305.47;;;31.64;30.41
47738;BME280;33502;47.182;27.506;2023-05-31T11:39:59;100309.78;;;31.86;30.45
47738;BME280;33502;47.182;27.506;2023-05-31T11:42:25;100302.13;;;32.30;29.50
47738;BME280;33502;47.182;27.506;2023-05-31T11:44:55;100307.97;;;31.58;29.82
47738;BME280;33502;47.182;27.506;2023-05-31T11:47:48;100301.28;;;30.70;30.93
47738;BME280;33502;47.182;27.506;2023-05-31T11:50:07;100302.16;;;30.49;30.55
47738;BME280;33502;47.182;27.506;2023-05-31T11:52:36;100300.13;;;31.07;31.94
47738;BME280;33502;47.182;27.506;2023-05-31T11:55:04;100309.78;;;31.45;30.34
47738;BME280;33502;47.182;27.506;2023-05-31T11:57:31;100299.78;;;32.07;31.25
47738;BME280;33502;47.182;27.506;2023-05-31T12:00:05;100298.75;;;32.34;29.60
47738;BME280;33502;47.182;27.506;2023-05-31T12:02:41;100290.97;;;32.51;31.11
47738;BME280;33502;47.182;27.506;2023-05-31T12:05:10;100288.44;;;32.30;28.83
47738;BME280;33502;47.182;27.506;2023-05-31T12:07:36;100295.38;;;32.26;30.25
47738;BME280;33502;47.182;27.506;2023-05-31T12:10:04;100290.34;;;32.89;29.60
47738;BME280;33502;47.182;27.506;2023-05-31T12:12:30;100291.16;;;33.03;28.68
47738;BME280;33502;47.182;27.506;2023-05-31T12:14:55;100287.72;;;33.41;29.71
47738;BME280;33502;47.182;27.506;2023-05-31T12:17:21;100278.72;;;33.14;28.66
47738;BME280;33502;47.182;27.506;2023-05-31T12:19:47;100275.34;;;32.52;29.93
47738;BME280;33502;47.182;27.506;2023-05-31T12:22:13;100284.25;;;32.61;29.93
47738;BME280;33502;47.182;27.506;2023-05-31T12:24:47;100277.91;;;32.67;29.36
47738;BME280;33502;47.182;27.506;2023-05-31T12:27:12;100276.84;;;32.74;30.08
47738;BME280;33502;47.182;27.506;2023-05-31T12:29:39;100274.91;;;33.02;29.42
47738;BME280;33502;47.182;27.506;2023-05-31T12:32:05;100282.56;;;32.80;28.59
47738;BME280;33502;47.182;27.506;2023-05-31T12:34:34;100277.50;;;32.63;29.52
47738;BME280;33502;47.182;27.506;2023-05-31T12:37:07;100278.38;;;30.99;29.18
47738;BME280;33502;47.182;27.506;2023-05-31T12:39:33;100276.97;;;30.53;31.29
47738;BME280;33502;47.182;27.506;2023-05-31T12:42:02;100271.06;;;30.99;29.86
47738;BME280;33502;47.182;27.506;2023-05-31T12:44:28;100269.13;;;31.83;29.07
47738;BME280;33502;47.182;27.506;2023-05-31T12:47:01;100260.59;;;32.46;29.62
47738;BME280;33502;47.182;27.506;2023-05-31T12:49:27;100252.16;;;32.88;29.54
47738;BME280;33502;47.182;27.506;2023-05-31T12:52:03;100253.00;;;32.88;31.00
47738;BME280;33502;47.182;27.506;2023-05-31T12:54:30;100249.03;;;32.37;29.74
47738;BME280;33502;47.182;27.506;2023-05-31T12:56:56;100253.53;;;31.29;29.40
47738;BME280;33502;47.182;27.506;2023-05-31T12:59:21;100252.84;;;31.20;30.79